createdAt,value
2023-01-23T00:01:59.448Z,99745.69
2023-01-23T00:04:26.735Z,99750.06
2023-01-23T00:06:54.742Z,99745.78
2023-01-23T00:09:21.948Z,99745.63
2023-01-23T00:11:49.152Z,99750.97
2023-01-23T00:17:03.599Z,99752.56
2023-01-23T00:19:30.863Z,99753.47
2023-01-23T00:21:58.070Z,99757.00
2023-01-23T00:24:25.256Z,99758.63
2023-01-23T00:26:52.498Z,99762.88
2023-01-23T00:29:19.695Z,99752.41
2023-01-23T00:31:47.116Z,99754.31
2023-01-23T00:34:14.733Z,99750.19
2023-01-23T00:36:42.255Z,99757.06
2023-01-23T00:44:43.751Z,99752.72
2023-01-23T00:47:10.975Z,99751.88
2023-01-23T00:49:38.190Z,99748.53
2023-01-23T00:52:05.378Z,99757.84
2023-01-23T00:54:32.631Z,99760.66
2023-01-23T00:56:59.812Z,99766.69
2023-01-23T00:59:27.127Z,99770.22
2023-01-23T01:01:54.441Z,99774.53
2023-01-23T01:04:21.655Z,99779.22
2023-01-23T01:06:48.848Z,99779.66
2023-01-23T01:11:43.224Z,99786.63
2023-01-23T01:14:10.403Z,99783.25
2023-01-23T01:16:37.706Z,99792.03
2023-01-23T01:19:05.290Z,99790.88
2023-01-23T01:21:32.610Z,99796.31
2023-01-23T01:23:59.964Z,99788.44
2023-01-23T01:26:27.235Z,99796.38
2023-01-23T01:28:54.425Z,99792.88
2023-01-23T01:31:21.735Z,99804.16
2023-01-23T01:33:49.251Z,99801.56
2023-01-23T01:38:43.558Z,99804.16
2023-01-23T01:41:11.488Z,99806.84
2023-01-23T01:43:38.672Z,99807.63
2023-01-23T01:46:06.061Z,99813.78
2023-01-23T01:48:33.339Z,99815.72
2023-01-23T01:51:00.616Z,99815.81
2023-01-23T01:53:27.839Z,99815.81
2023-01-23T01:55:55.040Z,99821.16
2023-01-23T01:58:22.287Z,99820.25
2023-01-23T02:00:49.509Z,99816.03
2023-01-23T02:05:44.185Z,99827.25
2023-01-23T02:10:40.575Z,99820.44
2023-01-23T02:13:07.757Z,99821.47
2023-01-23T02:15:34.932Z,99814.44
2023-01-23T02:18:02.107Z,99818.88
2023-01-23T02:20:29.370Z,99825.03
2023-01-23T02:22:57.668Z,99827.63
2023-01-23T02:25:24.898Z,99827.72
2023-01-23T02:27:52.161Z,99831.19
2023-01-23T02:30:20.986Z,99832.03
2023-01-23T02:32:48.428Z,99829.50
2023-01-23T02:38:02.851Z,99838.91
2023-01-23T02:40:30.020Z,99833.06
2023-01-23T02:42:57.209Z,99841.66
2023-01-23T02:45:25.329Z,99842.69
2023-01-23T02:47:52.643Z,99836.66
2023-01-23T02:52:47.245Z,99835.81
2023-01-23T02:57:41.827Z,99832.34
2023-01-23T03:00:21.396Z,99829.84
2023-01-23T03:02:48.833Z,99831.47
2023-01-23T03:08:03.163Z,99822.06
2023-01-23T03:10:30.719Z,99822.97
2023-01-23T03:13:02.047Z,99810.84
2023-01-23T03:15:29.287Z,99804.13
2023-01-23T03:17:56.494Z,99801.53
2023-01-23T03:20:23.848Z,99810.00
2023-01-23T03:22:51.039Z,99798.09
2023-01-23T03:27:45.488Z,99799.81
2023-01-23T03:30:22.154Z,99792.97
2023-01-23T03:32:49.717Z,99795.50
2023-01-23T03:38:04.070Z,99793.97
2023-01-23T03:40:50.020Z,99799.16
2023-01-23T03:45:44.403Z,99793.88
2023-01-23T03:50:58.802Z,99806.94
2023-01-23T03:53:26.021Z,99806.97
2023-01-23T03:55:53.274Z,99806.16
2023-01-23T03:58:20.518Z,99812.13
2023-01-23T04:00:47.776Z,99812.38
2023-01-23T04:05:42.088Z,99826.19
2023-01-23T04:10:56.572Z,99831.38
2023-01-23T04:13:23.845Z,99837.50
2023-01-23T04:15:51.056Z,99834.94
2023-01-23T04:21:05.408Z,99846.16
2023-01-23T04:23:32.775Z,99847.88
2023-01-23T04:26:00.027Z,99851.44
2023-01-23T04:35:48.756Z,99860.13
2023-01-23T04:40:43.033Z,99858.50
2023-01-23T04:45:37.444Z,99849.81
2023-01-23T04:48:04.631Z,99853.53
2023-01-23T04:50:31.867Z,99853.41
2023-01-23T04:52:59.076Z,99858.63
2023-01-23T04:55:28.201Z,99855.06
2023-01-23T04:57:55.421Z,99861.09
2023-01-23T05:00:22.834Z,99855.91
2023-01-23T05:02:50.091Z,99865.56
2023-01-23T05:05:21.300Z,99855.19
2023-01-23T05:07:48.531Z,99851.00
2023-01-23T05:12:42.903Z,99865.66
2023-01-23T05:17:37.238Z,99869.28
2023-01-23T05:20:04.436Z,99869.09
2023-01-23T05:22:32.303Z,99876.03
2023-01-23T05:24:59.551Z,99876.94
2023-01-23T05:27:26.814Z,99882.06
2023-01-23T05:29:54.031Z,99890.66
2023-01-23T05:32:21.312Z,99882.13
2023-01-23T05:34:48.547Z,99885.69
2023-01-23T05:39:42.969Z,99895.16
2023-01-23T05:44:57.331Z,99893.47
2023-01-23T05:47:24.527Z,99891.78
2023-01-23T05:49:51.826Z,99897.88
2023-01-23T05:54:46.284Z,99900.47
2023-01-23T05:57:13.463Z,99907.41
2023-01-23T05:59:40.712Z,99908.31
2023-01-23T06:02:07.889Z,99917.97
2023-01-23T06:04:35.136Z,99918.69
2023-01-23T06:07:02.331Z,99926.38
2023-01-23T06:09:29.512Z,99923.03
2023-01-23T06:11:56.761Z,99930.81
2023-01-23T06:14:23.934Z,99942.16
2023-01-23T06:16:51.176Z,99942.22
2023-01-23T06:21:45.457Z,99948.25
2023-01-23T06:26:39.760Z,99952.44
2023-01-23T06:29:06.955Z,99968.91
2023-01-23T06:31:34.252Z,99964.66
2023-01-23T06:34:01.572Z,99966.31
2023-01-23T06:41:43.103Z,99973.25
2023-01-23T06:46:37.626Z,99986.22
2023-01-23T06:49:06.267Z,99987.06
2023-01-23T06:51:33.692Z,99985.47
2023-01-23T06:54:00.893Z,99983.72
2023-01-23T06:56:28.247Z,99989.66
2023-01-23T06:58:55.563Z,99985.38
2023-01-23T07:01:22.882Z,99990.56
2023-01-23T07:03:50.143Z,99998.34
2023-01-23T07:06:17.343Z,100002.75
2023-01-23T07:08:44.548Z,100000.03
2023-01-23T07:13:39.191Z,100000.81
2023-01-23T07:16:06.504Z,100003.41
2023-01-23T07:18:33.738Z,100004.16
2023-01-23T07:21:01.150Z,100005.88
2023-01-23T07:23:28.385Z,100009.09
2023-01-23T07:25:55.597Z,100009.81
2023-01-23T07:28:22.797Z,100005.59
2023-01-23T07:30:50.099Z,100005.56
2023-01-23T07:36:04.518Z,100014.06
2023-01-23T07:38:31.724Z,100017.28
2023-01-23T07:43:26.064Z,100018.84
2023-01-23T07:50:47.510Z,100019.47
2023-01-23T07:56:02.308Z,100018.59
2023-01-23T07:58:29.486Z,100022.91
2023-01-23T08:00:56.683Z,100027.19
2023-01-23T08:03:23.976Z,100019.13
2023-01-23T08:05:51.183Z,100027.19
2023-01-23T08:08:18.378Z,100027.06
2023-01-23T08:10:45.655Z,100025.25
2023-01-23T08:13:12.987Z,100025.25
2023-01-23T08:15:40.432Z,100021.81
2023-01-23T08:18:07.647Z,100020.06
2023-01-23T08:20:34.839Z,100023.19
2023-01-23T08:23:02.376Z,100018.84
2023-01-23T08:25:29.800Z,100024.94
2023-01-23T08:27:57.049Z,100018.78
2023-01-23T08:30:24.302Z,100021.25
2023-01-23T08:32:51.584Z,100027.28
2023-01-23T08:35:18.819Z,100024.56
2023-01-23T08:37:46.021Z,100026.72
2023-01-23T08:40:13.261Z,100022.88
2023-01-23T08:42:40.483Z,100022.97
2023-01-23T08:45:07.673Z,100019.53
2023-01-23T08:47:36.788Z,100022.25
2023-01-23T08:50:04.594Z,100019.53
2023-01-23T08:52:31.849Z,100026.03
2023-01-23T08:54:59.041Z,100022.69
2023-01-23T08:57:26.423Z,100023.19
2023-01-23T08:59:53.611Z,100026.00
2023-01-23T09:02:22.162Z,100027.59
2023-01-23T09:04:49.656Z,100021.78
2023-01-23T09:07:16.853Z,100022.34
2023-01-23T09:09:44.078Z,100021.47
2023-01-23T09:12:11.279Z,100025.91
2023-01-23T09:14:38.612Z,100021.44
2023-01-23T09:17:05.796Z,100028.59
2023-01-23T09:19:33.099Z,100025.91
2023-01-23T09:22:00.305Z,100030.97
2023-01-23T09:24:27.489Z,100026.31
2023-01-23T09:26:54.723Z,100031.59
2023-01-23T09:29:21.925Z,100034.31
2023-01-23T09:31:49.160Z,100037.00
2023-01-23T09:36:43.788Z,100041.00
2023-01-23T09:41:59.747Z,100039.59
2023-01-23T09:44:26.933Z,100030.13
2023-01-23T09:49:21.229Z,100030.97
2023-01-23T09:51:48.508Z,100035.25
2023-01-23T09:54:15.837Z,100035.25
2023-01-23T09:56:43.038Z,100030.13
2023-01-23T10:04:24.511Z,100037.84
2023-01-23T10:06:51.698Z,100025.00
2023-01-23T10:09:18.891Z,100030.97
2023-01-23T10:11:46.206Z,100014.56
2023-01-23T10:14:15.007Z,100020.47
2023-01-23T10:16:50.578Z,100022.13
2023-01-23T10:19:18.313Z,100017.06
2023-01-23T10:21:45.529Z,100008.44
2023-01-23T10:24:12.713Z,100017.06
2023-01-23T10:26:39.916Z,100015.41
2023-01-23T10:29:07.118Z,100011.88
2023-01-23T10:31:34.471Z,100017.00
2023-01-23T10:34:04.877Z,100012.66
2023-01-23T10:36:42.082Z,100011.81
2023-01-23T10:39:14.885Z,100012.72
2023-01-23T10:41:44.455Z,100013.63
2023-01-23T10:44:13.405Z,100010.81
2023-01-23T10:46:40.688Z,100012.44
2023-01-23T10:54:42.258Z,100009.03
2023-01-23T10:59:56.955Z,100007.25
2023-01-23T11:02:24.290Z,100002.91
2023-01-23T11:04:51.952Z,100002.06
2023-01-23T11:07:19.150Z,100010.59
2023-01-23T11:09:46.459Z,100008.84
2023-01-23T11:12:13.655Z,100007.13
2023-01-23T11:14:40.864Z,100011.53
2023-01-23T11:17:08.049Z,100005.41
2023-01-23T11:19:35.250Z,100001.00
2023-01-23T11:22:02.511Z,99988.06
2023-01-23T11:24:39.252Z,99994.06
2023-01-23T11:27:07.836Z,100000.16
2023-01-23T11:29:36.264Z,99993.34
2023-01-23T11:32:03.586Z,99992.53
2023-01-23T11:34:30.901Z,99984.72
2023-01-23T11:36:58.111Z,99979.25
2023-01-23T11:39:25.418Z,99980.03
2023-01-23T11:41:52.601Z,99972.13
2023-01-23T11:44:21.185Z,99971.31
2023-01-23T11:46:50.012Z,99965.22
2023-01-23T11:49:17.289Z,99974.53
2023-01-23T11:51:44.480Z,99962.31
2023-01-23T11:54:11.786Z,99974.41
2023-01-23T11:56:39.004Z,99968.66
2023-01-23T11:59:06.190Z,99965.41
2023-01-23T12:01:33.505Z,99962.91
2023-01-23T12:04:00.742Z,99952.66
2023-01-23T12:06:27.953Z,99957.63
2023-01-23T12:08:55.166Z,99959.69
2023-01-23T12:11:24.412Z,99953.34
2023-01-23T12:13:51.661Z,99938.69
2023-01-23T12:16:18.893Z,99939.31
2023-01-23T12:18:46.193Z,99935.66
2023-01-23T12:21:13.375Z,99934.06
2023-01-23T12:23:41.856Z,99928.78
2023-01-23T12:28:56.806Z,99923.50
2023-01-23T12:31:24.079Z,99914.03
2023-01-23T12:33:51.321Z,99915.94
2023-01-23T12:36:18.571Z,99910.50
2023-01-23T12:38:45.769Z,99899.28
2023-01-23T12:41:13.054Z,99899.16
2023-01-23T12:43:40.270Z,99897.47
2023-01-23T12:46:07.472Z,99894.88
2023-01-23T12:48:34.678Z,99886.31
2023-01-23T12:51:01.920Z,99892.28
2023-01-23T12:53:30.525Z,99881.75
2023-01-23T12:55:57.743Z,99871.34
2023-01-23T12:58:25.843Z,99866.16
2023-01-23T13:00:53.372Z,99862.88
2023-01-23T13:03:22.707Z,99861.94
2023-01-23T13:05:50.069Z,99859.22
2023-01-23T13:08:19.010Z,99863.72
2023-01-23T13:11:05.819Z,99864.41
2023-01-23T13:16:00.122Z,99868.75
2023-01-23T13:18:28.297Z,99869.75
2023-01-23T13:21:14.353Z,99868.59
2023-01-23T13:23:41.533Z,99871.13
2023-01-23T13:26:08.745Z,99870.34
2023-01-23T13:28:44.436Z,99866.78
2023-01-23T13:31:13.051Z,99863.34
2023-01-23T13:33:40.343Z,99864.72
2023-01-23T13:36:07.561Z,99860.50
2023-01-23T13:41:27.436Z,99856.97
2023-01-23T13:43:54.648Z,99854.47
2023-01-23T13:46:21.839Z,99859.75
2023-01-23T14:22:17.433Z,99844.69
2023-01-23T14:24:44.687Z,99839.34
2023-01-23T14:27:13.203Z,99849.81
2023-01-23T14:29:42.188Z,99845.38
2023-01-23T14:34:36.453Z,99844.47
2023-01-23T14:37:04.188Z,99849.44
2023-01-23T14:39:31.419Z,99849.28
2023-01-23T14:42:02.038Z,99847.75
2023-01-23T14:44:29.574Z,99839.94
2023-01-23T14:46:56.763Z,99850.28
2023-01-23T14:49:23.970Z,99849.44
2023-01-23T14:51:51.202Z,99846.84
2023-01-23T14:54:23.009Z,99846.69
2023-01-23T14:56:50.521Z,99857.53
2023-01-23T14:59:17.722Z,99846.84
2023-01-23T15:01:44.903Z,99854.63
2023-01-23T15:04:12.179Z,99856.41
2023-01-23T15:06:39.420Z,99847.75
2023-01-23T15:09:06.646Z,99849.50
2023-01-23T15:14:04.389Z,99850.34
2023-01-23T15:16:33.978Z,99862.50
2023-01-23T15:19:01.312Z,99861.66
2023-01-23T15:23:55.628Z,99865.19
2023-01-23T15:28:51.020Z,99857.38
2023-01-23T15:31:18.329Z,99864.41
2023-01-23T15:33:47.690Z,99857.47
2023-01-23T15:36:14.957Z,99858.31
2023-01-23T15:38:42.133Z,99866.25
2023-01-23T15:41:09.480Z,99866.09
2023-01-23T15:43:36.730Z,99865.09
2023-01-23T15:46:03.988Z,99872.13
2023-01-23T15:48:31.192Z,99867.69
2023-01-23T15:50:58.984Z,99869.44
2023-01-23T15:56:13.365Z,99861.81
2023-01-23T15:58:40.586Z,99865.19
2023-01-23T16:03:34.865Z,99860.06
2023-01-23T16:06:02.097Z,99865.09
2023-01-23T16:11:16.426Z,99864.94
2023-01-23T16:13:44.389Z,99867.53
2023-01-23T16:16:11.702Z,99851.13
2023-01-23T16:21:06.087Z,99853.72
2023-01-23T16:23:46.206Z,99860.59
2023-01-23T16:26:14.316Z,99848.44
2023-01-23T16:28:41.496Z,99852.78
2023-01-23T16:31:08.729Z,99863.97
2023-01-23T16:33:35.941Z,99870.97
2023-01-23T16:36:03.121Z,99871.91
2023-01-23T16:38:30.444Z,99874.34
2023-01-23T16:40:59.550Z,99881.31
2023-01-23T16:43:26.817Z,99871.75
2023-01-23T16:45:56.144Z,99871.75
2023-01-23T16:48:28.370Z,99883.13
2023-01-23T16:50:56.269Z,99891.69
2023-01-23T16:53:23.502Z,99898.44
2023-01-23T16:55:51.697Z,99899.72
2023-01-23T16:58:18.930Z,99902.16
2023-01-23T17:00:46.167Z,99896.75
2023-01-23T17:03:13.405Z,99905.47
2023-01-23T17:08:27.808Z,99905.84
2023-01-23T17:10:55.060Z,99905.00
2023-01-23T17:13:22.327Z,99908.22
2023-01-23T17:15:49.504Z,99919.09
2023-01-23T17:18:16.687Z,99923.44
2023-01-23T17:23:31.040Z,99932.72
2023-01-23T17:26:01.327Z,99941.13
2023-01-23T17:57:44.187Z,99951.72
2023-01-23T18:00:11.567Z,99957.94
2023-01-23T18:02:39.015Z,99963.06
2023-01-23T18:05:06.341Z,99955.94
2023-01-23T18:07:48.557Z,99953.34
2023-01-23T18:10:21.169Z,99953.34
2023-01-23T18:12:48.364Z,99949.22
2023-01-23T18:15:15.863Z,99960.38
2023-01-23T18:17:43.302Z,99957.03
2023-01-23T18:20:10.542Z,99965.56
2023-01-23T18:22:37.733Z,99969.25
2023-01-23T18:25:04.927Z,99976.06
2023-01-23T18:32:46.480Z,99968.25
2023-01-23T18:35:14.244Z,99970.63
2023-01-23T18:37:41.438Z,99974.28
2023-01-23T18:40:08.620Z,99986.84
2023-01-23T18:42:35.924Z,99990.91
2023-01-23T18:45:03.124Z,99982.88
2023-01-23T18:49:57.441Z,99993.13
2023-01-23T18:52:25.031Z,99997.31
2023-01-23T18:54:52.219Z,99999.03
2023-01-23T18:57:19.453Z,100002.66
2023-01-23T18:59:49.476Z,99999.16
2023-01-23T19:02:16.755Z,99988.63
2023-01-23T19:04:44.017Z,99992.88
2023-01-23T19:07:11.196Z,99991.13
2023-01-23T19:09:40.680Z,99987.84
2023-01-23T19:12:14.027Z,99996.56
2023-01-23T19:14:47.895Z,99993.81
2023-01-23T19:17:15.077Z,99995.19
2023-01-23T19:22:09.383Z,100003.72
2023-01-23T19:27:23.743Z,100007.34
2023-01-23T19:29:50.948Z,100016.59
2023-01-23T19:32:18.241Z,100004.38
2023-01-23T19:34:45.447Z,100006.97
2023-01-23T19:37:13.970Z,100012.06
2023-01-23T19:39:41.258Z,100012.06
2023-01-23T19:42:08.459Z,100012.84
2023-01-23T19:44:35.664Z,100024.16
2023-01-23T19:49:32.467Z,100009.63
2023-01-23T19:51:59.684Z,100027.69
2023-01-23T19:54:26.906Z,100036.25
2023-01-23T19:56:54.102Z,100034.50
2023-01-23T19:59:21.682Z,100039.69
2023-01-23T20:04:36.254Z,100037.09
2023-01-23T20:07:03.461Z,100045.88
2023-01-23T20:09:30.832Z,100047.25
2023-01-23T20:11:58.051Z,100044.28
2023-01-23T20:14:25.799Z,100041.03
2023-01-23T20:16:53.018Z,100045.34
2023-01-23T20:19:20.419Z,100044.41
2023-01-23T20:21:48.599Z,100043.56
2023-01-23T20:24:16.038Z,100039.44
2023-01-23T20:26:43.706Z,100046.31
2023-01-23T20:29:10.893Z,100050.59
2023-01-23T20:34:05.270Z,100041.19
2023-01-23T20:36:32.453Z,100042.88
2023-01-23T20:38:59.662Z,100043.34
2023-01-23T20:41:26.870Z,100042.13
2023-01-23T20:43:54.055Z,100048.03
2023-01-23T20:46:21.268Z,100044.44
2023-01-23T20:51:15.762Z,100040.13
2023-01-23T20:53:43.183Z,100047.88
2023-01-23T20:56:10.442Z,100041.75
2023-01-23T20:58:56.529Z,100034.88
2023-01-23T21:01:23.611Z,100040.91
2023-01-23T21:03:50.811Z,100042.81
2023-01-23T21:06:18.094Z,100038.47
2023-01-23T21:08:45.388Z,100035.88
2023-01-23T21:11:12.596Z,100039.38
2023-01-23T21:16:26.889Z,100039.38
2023-01-23T21:18:54.135Z,100047.09
2023-01-23T21:21:21.360Z,100045.34
2023-01-23T21:23:51.468Z,100048.78
2023-01-23T21:26:18.663Z,100053.97
2023-01-23T21:28:45.859Z,100060.09
2023-01-23T21:31:13.185Z,100058.50
2023-01-23T21:33:44.195Z,100062.78
2023-01-23T21:36:11.372Z,100059.34
2023-01-23T21:38:38.850Z,100064.84
2023-01-23T21:41:06.182Z,100060.63
2023-01-23T21:43:33.399Z,100062.31
2023-01-23T21:46:00.643Z,100058.94
2023-01-23T21:48:27.883Z,100072.09
2023-01-23T21:50:55.116Z,100064.22
2023-01-23T21:53:22.322Z,100059.88
2023-01-23T21:58:36.649Z,100052.22
2023-01-23T22:01:22.762Z,100057.28
2023-01-23T22:03:49.890Z,100057.19
2023-01-23T22:06:17.070Z,100054.66
2023-01-23T22:11:48.088Z,100054.38
2023-01-23T22:14:15.343Z,100062.13
2023-01-23T22:16:50.658Z,100065.50
2023-01-23T22:19:18.375Z,100060.25
2023-01-23T22:21:46.690Z,100062.00
2023-01-23T22:24:14.167Z,100065.34
2023-01-23T22:29:08.840Z,100064.94
2023-01-23T22:31:36.166Z,100063.91
2023-01-23T22:36:50.715Z,100056.34
2023-01-23T22:39:19.699Z,100053.19
2023-01-23T22:41:46.917Z,100059.69
2023-01-23T22:44:14.367Z,100057.06
2023-01-23T22:49:10.258Z,100058.88
2023-01-23T22:51:37.454Z,100057.34
2023-01-23T22:54:06.065Z,100060.97
2023-01-23T22:56:33.319Z,100064.59
2023-01-23T23:01:30.907Z,100073.47
2023-01-23T23:03:58.179Z,100069.16
2023-01-23T23:06:25.378Z,100076.25
2023-01-23T23:08:52.580Z,100083.28
2023-01-23T23:11:19.795Z,100083.34
2023-01-23T23:13:46.968Z,100092.03
2023-01-23T23:16:14.154Z,100089.59
2023-01-23T23:18:41.490Z,100087.06
2023-01-23T23:21:08.675Z,100082.78
2023-01-23T23:23:36.065Z,100083.69
2023-01-23T23:26:04.647Z,100085.38
2023-01-23T23:28:31.831Z,100082.13
2023-01-23T23:30:59.077Z,100082.13
2023-01-23T23:33:26.293Z,100079.63
2023-01-23T23:35:53.508Z,100083.13
2023-01-23T23:38:20.701Z,100071.97
2023-01-23T23:40:47.868Z,100065.00
2023-01-23T23:43:15.048Z,100069.50
2023-01-23T23:45:42.293Z,100067.13
2023-01-23T23:48:09.540Z,100062.75
2023-01-23T23:50:36.708Z,100067.19
2023-01-23T23:53:03.884Z,100068.09
2023-01-23T23:55:31.057Z,100063.81
2023-01-23T23:57:58.237Z,100064.72
